Time;durP1;ratioP1;P1;durP2;ratioP2;P2;SDS_P1;SDS_P2;PMS_P1;PMS_P2;Temp;Humidity;BMP_temperature;BMP_pressure;BME280_temperature;BME280_humidity;BME280_pressure;Samples;Min_cycle;Max_cycle;Signal;HPM_P1;HPM_P2
2021/08/06 00:01:24;;;;;;;15.40;13.05;;;17.70;99.90;;;;;;5077393;28;20044;-87
2021/08/06 00:04:10;;;;;;;14.57;12.38;;;17.70;99.90;;;;;;5080144;28;20066;-87
2021/08/06 00:06:48;;;;;;;15.85;14.13;;;17.70;99.90;;;;;;5083436;28;20445;-87
2021/08/06 00:09:20;;;;;;;15.07;13.15;;;17.70;99.90;;;;;;5077693;28;20043;-88
2021/08/06 00:11:46;;;;;;;15.80;14.00;;;17.70;99.90;;;;;;5076384;28;20479;-88
2021/08/06 00:14:14;;;;;;;15.55;13.02;;;17.80;99.90;;;;;;5114970;28;20066;-88
2021/08/06 00:16:49;;;;;;;16.13;13.48;;;17.60;99.90;;;;;;5080484;28;20131;-87
2021/08/06 00:19:19;;;;;;;14.73;13.27;;;17.60;99.90;;;;;;5080017;28;20130;-88
2021/08/06 00:21:46;;;;;;;16.10;13.23;;;17.60;99.90;;;;;;5114687;28;20047;-87
2021/08/06 00:24:12;;;;;;;16.00;13.38;;;17.60;99.90;;;;;;5114699;28;20066;-87
2021/08/06 00:26:41;;;;;;;14.15;12.68;;;17.40;99.90;;;;;;5114606;28;20036;-87
2021/08/06 00:29:11;;;;;;;17.63;13.85;;;17.50;99.90;;;;;;5077923;28;20127;-87
2021/08/06 00:31:42;;;;;;;15.43;13.82;;;17.50;99.90;;;;;;5079150;28;20055;-87
2021/08/06 00:34:21;;;;;;;14.73;12.43;;;17.50;99.90;;;;;;5080363;28;20078;-88
2021/08/06 00:37:01;;;;;;;15.55;13.32;;;17.50;99.90;;;;;;5080347;28;20514;-88
2021/08/06 00:39:27;;;;;;;17.35;13.73;;;17.50;99.90;;;;;;5114056;28;20035;-87
2021/08/06 00:41:56;;;;;;;14.57;13.10;;;17.50;99.90;;;;;;5096118;28;20043;-87
2021/08/06 00:44:41;;;;;;;16.48;12.38;;;17.50;99.90;;;;;;5096498;28;20487;-87
2021/08/06 00:47:15;;;;;;;14.20;12.70;;;17.40;99.90;;;;;;5096411;28;20032;-87
2021/08/06 00:49:48;;;;;;;16.45;13.65;;;17.40;99.90;;;;;;5091674;28;20028;-87
2021/08/06 00:52:16;;;;;;;14.73;13.05;;;17.30;99.90;;;;;;5109560;28;20046;-87
2021/08/06 00:54:46;;;;;;;15.55;12.88;;;17.30;99.90;;;;;;5062258;28;20047;-87
2021/08/06 00:57:26;;;;;;;14.00;12.35;;;17.30;99.90;;;;;;5095998;28;20107;-87
2021/08/06 00:59:56;;;;;;;14.15;12.75;;;17.30;99.90;;;;;;5088385;28;20126;-87
2021/08/06 01:02:58;;;;;;;14.10;12.63;;;17.30;99.90;;;;;;5081589;28;20038;-87
2021/08/06 01:05:30;;;;;;;14.40;13.00;;;17.30;99.90;;;;;;5081265;28;20032;-87
2021/08/06 01:08:19;;;;;;;16.10;13.25;;;17.40;99.90;;;;;;5097072;28;20036;-87
2021/08/06 01:10:55;;;;;;;15.55;13.27;;;17.20;99.90;;;;;;5095676;28;20089;-87
2021/08/06 01:13:34;;;;;;;22.50;12.80;;;17.20;99.90;;;;;;5078364;28;20040;-87
2021/08/06 01:16:08;;;;;;;14.23;12.82;;;17.20;99.90;;;;;;5109316;28;20046;-87
2021/08/06 01:18:41;;;;;;;17.38;13.43;;;17.20;99.90;;;;;;5085811;28;20400;-87
2021/08/06 01:21:14;;;;;;;17.05;14.23;;;17.20;99.90;;;;;;5095418;28;20062;-87
2021/08/06 01:24:06;;;;;;;21.45;14.30;;;17.20;99.90;;;;;;5096265;28;20369;-87
2021/08/06 01:26:45;;;;;;;19.20;14.45;;;17.20;99.90;;;;;;5095860;28;20080;-87
2021/08/06 01:30:11;;;;;;;15.43;13.82;;;17.10;99.90;;;;;;5082169;28;20044;-87
2021/08/06 01:32:43;;;;;;;15.43;13.82;;;17.10;99.90;;;;;;5080853;28;20084;-87
2021/08/06 01:35:11;;;;;;;16.85;13.82;;;17.20;99.90;;;;;;5087663;28;20515;-87
2021/08/06 01:38:01;;;;;;;17.63;13.90;;;17.00;99.90;;;;;;5090127;28;20040;-87
2021/08/06 01:40:38;;;;;;;15.35;13.68;;;17.00;99.90;;;;;;5113144;28;20124;-87
2021/08/06 01:43:23;;;;;;;17.80;14.70;;;17.00;99.90;;;;;;5078538;28;20141;-87
2021/08/06 01:46:08;;;;;;;15.13;13.52;;;17.00;99.90;;;;;;5078330;28;20500;-87
2021/08/06 01:48:42;;;;;;;17.35;13.85;;;16.90;99.90;;;;;;5095183;28;20031;-87
2021/08/06 01:54:03;;;;;;;20.67;14.32;;;16.90;99.90;;;;;;5069700;28;20048;-87
2021/08/06 01:56:31;;;;;;;15.00;13.40;;;16.90;99.90;;;;;;5078068;28;20106;-86
2021/08/06 01:59:00;;;;;;;14.93;13.43;;;16.90;99.90;;;;;;5087539;28;20032;-87
2021/08/06 02:01:34;;;;;;;20.33;14.23;;;16.90;99.90;;;;;;5087878;28;20088;-87
2021/08/06 02:04:11;;;;;;;18.75;13.98;;;16.80;99.90;;;;;;5089014;28;20124;-87
2021/08/06 02:06:48;;;;;;;16.70;15.00;;;16.80;99.90;;;;;;5072217;28;20495;-87
2021/08/06 02:09:21;;;;;;;16.85;14.38;;;16.80;99.90;;;;;;5058307;28;20066;-87
2021/08/06 02:11:52;;;;;;;18.27;15.67;;;16.90;99.90;;;;;;5088686;28;20051;-87
2021/08/06 02:14:21;;;;;;;16.48;14.77;;;16.80;99.90;;;;;;5094909;28;20039;-87
2021/08/06 02:16:52;;;;;;;17.75;15.88;;;16.80;99.90;;;;;;5095110;28;20032;-87
2021/08/06 02:19:25;;;;;;;20.90;15.68;;;16.90;99.90;;;;;;5077761;28;20038;-87
2021/08/06 02:22:00;;;;;;;17.77;15.95;;;16.80;99.90;;;;;;5094491;28;20491;-87
2021/08/06 02:24:34;;;;;;;17.08;15.25;;;16.80;99.90;;;;;;5077242;28;20040;-87
2021/08/06 02:27:06;;;;;;;22.17;16.15;;;16.80;99.90;;;;;;5088954;28;20089;-87
2021/08/06 02:29:38;;;;;;;18.50;13.88;;;16.80;99.90;;;;;;5065267;28;20546;-87
2021/08/06 02:32:28;;;;;;;17.98;14.00;;;16.80;99.90;;;;;;5065598;28;20086;-87
2021/08/06 02:34:56;;;;;;;17.50;13.73;;;16.80;99.90;;;;;;5098471;28;20039;-88
2021/08/06 02:37:36;;;;;;;14.05;12.65;;;16.80;99.90;;;;;;5098440;28;20028;-87
2021/08/06 02:40:08;;;;;;;14.00;12.35;;;16.80;99.90;;;;;;5098900;28;20062;-87
2021/08/06 02:42:36;;;;;;;14.50;12.70;;;16.80;99.90;;;;;;5081712;28;20052;-87
2021/08/06 02:45:09;;;;;;;16.92;13.40;;;16.80;99.90;;;;;;5082115;28;20423;-87
2021/08/06 02:47:42;;;;;;;18.17;12.73;;;16.80;99.90;;;;;;5098408;28;20039;-87
2021/08/06 02:50:16;;;;;;;14.93;12.32;;;16.80;99.90;;;;;;5065639;28;20082;-85
2021/08/06 02:52:45;;;;;;;13.23;11.82;;;16.90;99.90;;;;;;5083733;28;20036;-85
2021/08/06 02:55:14;;;;;;;16.35;12.10;;;16.70;99.90;;;;;;5081569;28;20054;-85
2021/08/06 02:57:43;;;;;;;15.75;12.98;;;17.00;99.90;;;;;;5098199;28;20031;-85
2021/08/06 03:00:13;;;;;;;13.98;12.57;;;16.70;99.90;;;;;;5059645;28;20385;-85
2021/08/06 03:02:46;;;;;;;14.15;12.65;;;16.80;99.90;;;;;;5098443;28;20124;-85
2021/08/06 03:05:19;;;;;;;14.73;13.13;;;16.70;99.90;;;;;;5047479;28;20051;-85
2021/08/06 03:08:09;;;;;;;15.52;12.68;;;16.60;99.90;;;;;;5081509;28;20043;-85
2021/08/06 03:10:39;;;;;;;13.95;12.30;;;16.70;99.90;;;;;;5081449;28;20039;-85
2021/08/06 03:13:05;;;;;;;15.13;12.35;;;16.80;99.90;;;;;;5081223;28;20036;-85
2021/08/06 03:15:32;;;;;;;15.88;12.50;;;16.80;99.90;;;;;;5083786;28;20058;-85
2021/08/06 03:17:58;;;;;;;15.82;12.13;;;16.80;99.90;;;;;;5098134;28;20043;-85
2021/08/06 03:20:29;;;;;;;16.10;11.90;;;16.70;99.90;;;;;;5081117;28;20039;-85
2021/08/06 03:22:57;;;;;;;14.05;12.50;;;16.70;99.90;;;;;;5097684;28;20047;-85
2021/08/06 03:25:47;;;;;;;14.63;12.30;;;16.60;99.90;;;;;;5100775;28;20040;-85
2021/08/06 03:28:18;;;;;;;14.75;12.43;;;16.70;99.90;;;;;;5097968;28;20118;-85
2021/08/06 03:30:48;;;;;;;17.23;12.43;;;16.70;99.90;;;;;;5079999;28;20093;-85
2021/08/06 03:33:34;;;;;;;13.82;11.57;;;16.70;99.90;;;;;;5072126;28;20052;-85
2021/08/06 03:36:07;;;;;;;15.43;11.82;;;16.60;99.90;;;;;;5091812;28;20280;-85
2021/08/06 03:38:43;;;;;;;15.88;11.65;;;16.70;99.90;;;;;;5077276;28;20048;-85
2021/08/06 03:41:12;;;;;;;17.27;11.93;;;16.70;99.90;;;;;;5077516;28;20040;-85
2021/08/06 03:43:46;;;;;;;14.25;11.65;;;16.70;99.90;;;;;;5088656;28;20046;-85
2021/08/06 03:46:21;;;;;;;13.00;11.60;;;16.70;99.90;;;;;;5076539;28;20040;-85
2021/08/06 03:49:03;;;;;;;15.93;10.90;;;16.70;99.90;;;;;;5090540;28;20055;-85
2021/08/06 03:51:33;;;;;;;13.40;11.90;;;16.70;99.90;;;;;;5063354;28;20070;-85
2021/08/06 03:54:07;;;;;;;15.00;11.05;;;16.70;99.90;;;;;;5076831;28;20048;-85
2021/08/06 03:56:36;;;;;;;16.05;11.27;;;16.70;99.90;;;;;;5094046;28;20074;-85
2021/08/06 03:59:04;;;;;;;12.30;10.77;;;16.70;99.90;;;;;;5097334;28;20050;-85
2021/08/06 04:01:45;;;;;;;15.02;11.50;;;16.80;99.90;;;;;;5098558;28;20035;-85
2021/08/06 04:04:29;;;;;;;15.55;11.70;;;16.70;99.90;;;;;;5080528;28;20050;-85
2021/08/06 04:07:06;;;;;;;16.73;11.43;;;16.60;99.90;;;;;;5096617;28;20052;-85
2021/08/06 04:09:43;;;;;;;14.43;10.65;;;16.70;99.90;;;;;;5082072;28;20074;-85
2021/08/06 04:12:17;;;;;;;14.43;10.63;;;16.70;99.90;;;;;;5065136;28;20040;-85
2021/08/06 04:14:51;;;;;;;14.80;10.45;;;16.70;99.90;;;;;;5097733;28;20084;-85
2021/08/06 04:17:21;;;;;;;14.25;11.30;;;16.70;99.90;;;;;;5080807;28;20039;-85
2021/08/06 04:19:52;;;;;;;13.73;11.13;;;16.70;99.90;;;;;;5080228;28;20043;-84
2021/08/06 04:22:22;;;;;;;13.00;10.73;;;16.70;99.90;;;;;;5096934;28;20479;-85
2021/08/06 04:25:04;;;;;;;20.95;11.35;;;16.70;99.90;;;;;;5063363;28;20063;-85
2021/08/06 04:27:37;;;;;;;13.07;11.57;;;16.70;99.90;;;;;;5081795;28;20030;-85
2021/08/06 04:30:14;;;;;;;13.35;10.93;;;16.70;99.90;;;;;;5079802;28;20453;-85
2021/08/06 04:32:53;;;;;;;14.32;11.77;;;16.70;99.90;;;;;;5096238;28;20505;-85
2021/08/06 04:35:23;;;;;;;13.20;10.70;;;16.70;99.90;;;;;;5063888;28;20040;-86
2021/08/06 04:37:56;;;;;;;16.27;11.63;;;16.70;99.90;;;;;;5059921;28;20041;-85
2021/08/06 04:40:23;;;;;;;15.15;11.80;;;16.70;99.90;;;;;;5071392;28;20058;-85
2021/08/06 04:42:57;;;;;;;17.00;11.85;;;16.60;99.90;;;;;;5114310;28;20089;-87
2021/08/06 04:45:35;;;;;;;;;;;16.60;99.90;;;;;;5096969;28;20032;-85
2021/08/06 04:48:12;;;;;;;13.27;11.20;;;16.60;99.90;;;;;;5076442;28;19922;-87
2021/08/06 04:50:49;;;;;;;14.52;11.43;;;16.60;99.90;;;;;;5086751;28;20104;-87
2021/08/06 04:53:18;;;;;;;14.63;10.77;;;16.60;99.90;;;;;;5095022;28;20476;-87
2021/08/06 04:55:51;;;;;;;14.98;11.32;;;16.70;99.90;;;;;;5079193;28;20525;-87
2021/08/06 04:58:25;;;;;;;16.38;10.65;;;16.70;99.90;;;;;;5113726;28;20051;-86
2021/08/06 05:00:54;;;;;;;12.90;10.73;;;16.70;99.90;;;;;;5095836;28;20048;-87
2021/08/06 05:03:24;;;;;;;12.88;10.18;;;16.70;99.90;;;;;;5079044;28;20495;-87
2021/08/06 05:05:50;;;;;;;14.05;11.02;;;16.70;99.90;;;;;;5071643;28;20097;-87
2021/08/06 05:08:16;;;;;;;13.13;10.43;;;16.70;99.90;;;;;;5088410;28;20093;-87
2021/08/06 05:10:46;;;;;;;12.80;10.75;;;16.80;99.90;;;;;;5095519;28;20093;-86
2021/08/06 05:13:18;;;;;;;12.43;10.68;;;16.70;99.90;;;;;;5095904;28;20089;-85
2021/08/06 05:16:06;;;;;;;13.88;10.95;;;16.80;99.90;;;;;;5096035;28;20104;-85
2021/08/06 05:18:41;;;;;;;13.55;10.25;;;16.80;99.90;;;;;;5079227;28;20035;-85
2021/08/06 05:21:10;;;;;;;15.68;10.80;;;16.70;99.90;;;;;;5079113;28;20032;-85
2021/08/06 05:23:41;;;;;;;12.67;10.30;;;16.80;99.90;;;;;;5090237;28;20118;-85
2021/08/06 05:26:13;;;;;;;17.13;10.48;;;16.60;99.90;;;;;;5079140;28;20047;-85
2021/08/06 05:28:43;;;;;;;14.15;11.00;;;16.80;99.90;;;;;;5078819;28;20040;-85
2021/08/06 05:31:09;;;;;;;13.02;10.80;;;16.80;99.90;;;;;;5113404;28;20544;-85
2021/08/06 05:33:37;;;;;;;12.32;9.50;;;17.00;99.90;;;;;;5063262;28;20048;-85
2021/08/06 05:36:03;;;;;;;17.23;10.35;;;16.90;99.90;;;;;;5085823;28;20042;-85
2021/08/06 05:38:30;;;;;;;14.60;10.52;;;16.80;99.90;;;;;;5081343;28;20050;-85
2021/08/06 05:40:58;;;;;;;13.52;10.13;;;16.90;99.90;;;;;;5058936;28;20028;-85
2021/08/06 05:43:27;;;;;;;16.77;10.52;;;16.90;99.90;;;;;;5075047;28;20518;-85
2021/08/06 05:45:53;;;;;;;14.68;9.95;;;16.90;99.90;;;;;;5058334;28;20112;-85
2021/08/06 05:48:19;;;;;;;14.88;10.10;;;16.90;99.90;;;;;;5092916;28;20107;-85
2021/08/06 05:50:56;;;;;;;13.23;10.02;;;16.90;99.90;;;;;;5075208;28;20051;-85
2021/08/06 05:53:29;;;;;;;13.07;9.93;;;16.90;99.90;;;;;;5061048;28;20036;-85
2021/08/06 05:56:00;;;;;;;15.63;10.02;;;17.00;99.90;;;;;;5054882;28;20060;-85
2021/08/06 05:58:45;;;;;;;12.85;9.65;;;17.20;99.90;;;;;;5030060;28;20070;-85
2021/08/06 06:01:14;;;;;;;14.65;9.57;;;17.10;99.90;;;;;;5078896;28;20045;-85
2021/08/06 06:03:52;;;;;;;10.80;9.07;;;17.00;99.90;;;;;;5074937;28;20162;-85
2021/08/06 06:06:18;;;;;;;10.52;9.23;;;16.90;99.90;;;;;;5025760;28;20131;-85
2021/08/06 06:08:58;;;;;;;11.48;9.13;;;17.10;99.90;;;;;;5059662;28;20510;-85
2021/08/06 06:11:44;;;;;;;15.32;9.88;;;17.10;99.90;;;;;;5095836;28;20490;-85
2021/08/06 06:14:14;;;;;;;11.20;9.23;;;17.30;99.90;;;;;;5080088;28;20829;-85
2021/08/06 06:16:48;;;;;;;14.48;10.18;;;17.30;99.90;;;;;;5078818;28;20044;-87
2021/08/06 06:19:20;;;;;;;10.55;9.20;;;17.30;99.90;;;;;;5078867;28;20044;-87
2021/08/06 06:21:52;;;;;;;12.68;8.27;;;17.40;99.90;;;;;;5078861;28;20040;-87
2021/08/06 06:24:21;;;;;;;12.73;9.02;;;17.60;99.90;;;;;;5041653;28;20540;-87
2021/08/06 06:26:50;;;;;;;13.82;9.00;;;17.50;99.90;;;;;;5036770;28;20048;-86
2021/08/06 06:29:19;;;;;;;11.35;8.98;;;17.60;99.90;;;;;;5061733;28;20036;-87
2021/08/06 06:31:47;;;;;;;12.95;9.80;;;17.60;99.90;;;;;;5083216;28;20056;-87
2021/08/06 06:34:16;;;;;;;11.32;8.70;;;17.70;99.90;;;;;;5081617;28;20074;-87
2021/08/06 06:36:46;;;;;;;14.55;9.25;;;17.70;99.90;;;;;;5098939;28;20550;-87
2021/08/06 06:39:27;;;;;;;;;;;;;;;;;;;;;
2021/08/06 06:41:56;;;;;;;11.45;8.15;;;17.70;99.90;;;;;;5083184;28;20043;-87
2021/08/06 06:44:38;;;;;;;12.15;8.50;;;17.70;99.90;;;;;;5099059;28;20041;-87
2021/08/06 06:47:10;;;;;;;10.93;7.82;;;17.80;99.90;;;;;;5116522;28;20055;-87
2021/08/06 06:49:38;;;;;;;9.40;7.75;;;17.70;99.90;;;;;;5098805;28;20051;-87
2021/08/06 06:52:09;;;;;;;14.73;7.63;;;17.70;99.90;;;;;;5099162;28;20035;-87
2021/08/06 06:54:35;;;;;;;12.40;8.82;;;17.80;99.90;;;;;;5081462;28;20048;-87
2021/08/06 06:57:02;;;;;;;8.88;7.13;;;17.80;99.90;;;;;;5082249;28;20380;-87
2021/08/06 06:59:28;;;;;;;8.73;7.40;;;17.80;99.90;;;;;;5098717;28;20032;-87
2021/08/06 07:01:57;;;;;;;13.00;7.93;;;17.90;99.90;;;;;;5063857;28;20056;-87
2021/08/06 07:04:28;;;;;;;11.73;7.25;;;18.00;99.90;;;;;;5098131;28;20032;-87
2021/08/06 07:07:05;;;;;;;13.03;7.23;;;18.00;99.90;;;;;;5081815;28;20438;-87
2021/08/06 07:09:31;;;;;;;8.75;6.80;;;18.20;99.90;;;;;;5097977;28;20063;-87
2021/08/06 07:12:03;;;;;;;8.40;6.63;;;18.20;99.90;;;;;;5098223;28;20039;-87
2021/08/06 07:14:37;;;;;;;9.52;6.68;;;18.30;99.90;;;;;;5116286;28;20036;-87
2021/08/06 07:17:07;;;;;;;11.40;6.95;;;18.40;99.90;;;;;;5096717;28;20126;-87
2021/08/06 07:19:39;;;;;;;9.80;6.43;;;18.30;99.90;;;;;;5076411;28;20040;-84
2021/08/06 07:22:05;;;;;;;11.45;6.70;;;18.40;99.90;;;;;;5079650;28;20062;-83
2021/08/06 07:24:31;;;;;;;8.98;6.40;;;18.40;99.90;;;;;;5100919;28;20106;-82
2021/08/06 07:26:57;;;;;;;9.40;6.80;;;18.40;99.90;;;;;;5097756;28;20126;-82
2021/08/06 07:29:23;;;;;;;8.68;6.68;;;18.40;99.90;;;;;;5096214;28;20028;-82
2021/08/06 07:31:49;;;;;;;9.95;6.20;;;18.30;99.90;;;;;;5114884;28;20047;-81
2021/08/06 07:34:15;;;;;;;8.57;7.03;;;18.30;99.90;;;;;;5093237;28;20078;-83
2021/08/06 07:36:41;;;;;;;10.55;7.30;;;18.30;99.90;;;;;;5083385;28;20040;-80
2021/08/06 07:39:07;;;;;;;9.77;6.95;;;18.20;99.90;;;;;;5090427;28;20031;-79
2021/08/06 07:41:33;;;;;;;14.77;7.82;;;18.20;99.90;;;;;;5111090;28;20102;-79
2021/08/06 07:43:59;;;;;;;18.45;8.30;;;18.10;99.90;;;;;;5084226;28;20046;-74
2021/08/06 07:46:25;;;;;;;15.30;9.07;;;18.00;99.90;;;;;;5091707;28;20047;-75
2021/08/06 07:48:53;;;;;;;12.48;9.00;;;18.00;99.90;;;;;;5108067;28;20028;-74
2021/08/06 07:51:19;;;;;;;15.25;8.50;;;17.90;99.90;;;;;;5089852;28;20032;-75
2021/08/06 07:53:45;;;;;;;12.32;8.70;;;17.80;99.90;;;;;;5090842;28;20047;-74
2021/08/06 07:56:13;;;;;;;10.00;8.43;;;17.80;99.90;;;;;;5091390;28;20071;-76
2021/08/06 07:58:40;;;;;;;12.95;8.73;;;17.80;99.90;;;;;;5075598;28;20644;-77
2021/08/06 08:01:07;;;;;;;9.52;7.70;;;17.80;99.90;;;;;;5094816;28;20036;-77
2021/08/06 08:03:33;;;;;;;11.57;8.50;;;17.80;99.90;;;;;;5077857;28;20115;-77
2021/08/06 08:06:00;;;;;;;9.13;7.45;;;17.80;99.90;;;;;;5114020;28;20471;-77
2021/08/06 08:08:26;;;;;;;10.70;7.75;;;17.80;99.90;;;;;;5075653;28;20440;-77
2021/08/06 08:10:55;;;;;;;13.48;7.93;;;17.70;99.90;;;;;;5080501;28;20043;-77
2021/08/06 08:13:23;;;;;;;12.43;7.80;;;17.80;99.90;;;;;;5093478;28;20418;-77
2021/08/06 08:15:49;;;;;;;11.65;8.38;;;17.80;99.90;;;;;;5091371;28;20040;-77
2021/08/06 08:18:15;;;;;;;10.55;8.65;;;17.80;99.90;;;;;;5071478;28;20046;-77
2021/08/06 08:20:41;;;;;;;11.10;8.48;;;17.90;99.90;;;;;;5111372;28;20468;-77
2021/08/06 08:23:07;;;;;;;12.07;9.18;;;17.90;99.90;;;;;;5087626;28;20184;-77
2021/08/06 08:25:33;;;;;;;12.20;8.88;;;18.00;99.90;;;;;;5101912;28;20071;-77
2021/08/06 08:27:59;;;;;;;14.13;9.55;;;18.00;99.90;;;;;;5106084;28;20048;-77
2021/08/06 08:30:25;;;;;;;13.27;9.27;;;18.10;99.90;;;;;;5096375;28;20043;-77
2021/08/06 08:32:50;;;;;;;13.48;9.43;;;18.10;99.90;;;;;;5108799;28;20522;-77
2021/08/06 08:35:16;;;;;;;12.43;9.68;;;18.10;99.90;;;;;;5114339;28;20117;-77
2021/08/06 08:37:44;;;;;;;11.15;9.45;;;18.00;99.90;;;;;;5084102;28;20035;-77
2021/08/06 08:40:10;;;;;;;12.68;9.38;;;18.10;99.90;;;;;;5078542;28;20074;-77
2021/08/06 08:42:36;;;;;;;13.05;9.23;;;18.00;99.90;;;;;;5112330;28;20509;-77
2021/08/06 08:45:04;;;;;;;10.48;8.60;;;18.00;99.90;;;;;;5114170;28;20099;-77
2021/08/06 08:47:33;;;;;;;14.52;10.02;;;18.00;99.90;;;;;;5079072;28;20035;-77
2021/08/06 08:50:01;;;;;;;13.65;9.38;;;18.00;99.90;;;;;;5084530;28;20047;-76
2021/08/06 08:52:27;;;;;;;10.52;9.07;;;18.00;99.90;;;;;;5101511;28;20040;-77
2021/08/06 08:54:53;;;;;;;10.60;8.43;;;18.00;99.90;;;;;;5095399;28;20027;-76
2021/08/06 08:57:23;;;;;;;9.82;8.40;;;18.00;99.90;;;;;;5079163;28;20058;-76
2021/08/06 08:59:50;;;;;;;10.70;7.95;;;18.00;99.90;;;;;;5113755;28;20555;-76
2021/08/06 09:02:16;;;;;;;12.48;9.68;;;18.00;99.90;;;;;;5076166;28;20122;-76
2021/08/06 09:04:48;;;;;;;11.48;9.43;;;18.20;99.90;;;;;;5109257;28;20070;-76
2021/08/06 09:07:30;;;;;;;16.55;10.27;;;18.10;99.90;;;;;;5088273;28;20040;-77
2021/08/06 09:10:18;;;;;;;13.02;9.65;;;18.00;99.90;;;;;;5090806;28;20038;-77
2021/08/06 09:12:56;;;;;;;12.30;8.52;;;18.00;99.90;;;;;;5095039;28;20055;-76
2021/08/06 09:15:44;;;;;;;13.55;8.38;;;18.00;99.90;;;;;;5103809;28;20258;-74
2021/08/06 09:18:25;;;;;;;10.48;8.00;;;18.00;99.90;;;;;;5084624;28;20039;-74
2021/08/06 09:20:52;;;;;;;12.00;8.10;;;18.00;99.90;;;;;;5090183;28;20031;-73
2021/08/06 09:23:52;;;;;;;10.65;8.45;;;18.00;99.90;;;;;;5098932;28;20116;-75
2021/08/06 09:26:32;;;;;;;9.63;8.15;;;18.00;99.90;;;;;;5088236;28;20040;-75
2021/08/06 09:29:07;;;;;;;9.63;8.40;;;18.10;99.90;;;;;;5110598;28;20110;-75
2021/08/06 09:31:38;;;;;;;9.93;7.95;;;18.20;99.90;;;;;;5094962;28;20044;-75
2021/08/06 09:34:28;;;;;;;8.82;6.90;;;18.20;99.90;;;;;;5109990;28;20479;-76
2021/08/06 09:37:07;;;;;;;10.25;7.80;;;18.30;99.90;;;;;;5112080;28;20038;-79
2021/08/06 09:39:54;;;;;;;8.88;6.18;;;18.30;99.90;;;;;;5101956;28;20032;-81
2021/08/06 09:42:27;;;;;;;7.53;5.93;;;18.30;99.90;;;;;;5107397;28;20038;-79
2021/08/06 09:45:07;;;;;;;6.32;5.63;;;18.30;99.90;;;;;;5105630;28;20028;-79
2021/08/06 09:47:37;;;;;;;6.97;5.97;;;18.30;99.90;;;;;;5089566;28;20122;-79
2021/08/06 09:50:44;;;;;;;6.93;6.18;;;18.30;99.90;;;;;;5107110;28;20032;-79
2021/08/06 09:53:11;;;;;;;8.18;5.45;;;18.30;99.90;;;;;;5106362;28;20089;-81
2021/08/06 09:55:40;;;;;;;6.85;6.15;;;18.30;99.90;;;;;;5105491;28;20153;-77
2021/08/06 09:58:28;;;;;;;7.45;5.72;;;18.30;99.90;;;;;;5073404;28;20040;-77
2021/08/06 10:00:55;;;;;;;6.20;5.60;;;18.60;99.90;;;;;;5088686;28;20054;-77
2021/08/06 10:03:28;;;;;;;8.35;6.18;;;18.30;99.90;;;;;;5076593;28;20403;-77
2021/08/06 10:06:11;;;;;;;8.18;7.13;;;18.30;99.90;;;;;;5112438;28;20039;-81
2021/08/06 10:08:41;;;;;;;6.78;6.05;;;18.40;99.90;;;;;;5108570;28;20441;-76
2021/08/06 10:11:08;;;;;;;7.32;5.47;;;18.50;99.90;;;;;;5092046;28;20036;-75
2021/08/06 10:13:34;;;;;;;6.88;6.18;;;18.50;99.90;;;;;;5105470;28;20093;-82
2021/08/06 10:16:26;;;;;;;6.88;6.20;;;18.50;99.90;;;;;;5094086;28;20050;-82
2021/08/06 10:19:09;;;;;;;6.70;5.97;;;18.50;99.90;;;;;;4993007;28;20045;-80
2021/08/06 10:21:35;;;;;;;7.80;6.13;;;18.60;99.90;;;;;;5081673;28;20040;-77
2021/08/06 10:24:02;;;;;;;7.50;6.38;;;18.60;99.90;;;;;;5099687;28;20063;-79
2021/08/06 10:26:28;;;;;;;7.53;5.80;;;18.60;99.90;;;;;;5103767;28;20118;-80
2021/08/06 10:28:54;;;;;;;5.75;5.15;;;18.80;99.90;;;;;;5104578;28;20452;-78
2021/08/06 10:31:22;;;;;;;7.43;5.57;;;18.90;99.90;;;;;;5094245;28;20032;-78
2021/08/06 10:34:07;;;;;;;6.63;5.50;;;19.00;99.90;;;;;;5110859;28;21142;-76
2021/08/06 10:36:48;;;;;;;7.88;5.30;;;19.30;99.90;;;;;;5081483;28;20043;-79
2021/08/06 10:39:38;;;;;;;5.43;4.80;;;19.30;99.90;;;;;;5101507;28;20039;-80
2021/08/06 10:42:05;;;;;;;6.55;4.57;;;19.40;99.90;;;;;;5094526;28;20428;-80
2021/08/06 10:44:53;;;;;;;5.78;4.28;;;19.50;99.90;;;;;;5087629;28;20083;-80
2021/08/06 10:47:19;;;;;;;7.05;4.53;;;19.60;99.90;;;;;;5112287;28;20036;-80
2021/08/06 10:50:12;;;;;;;5.78;4.38;;;19.60;99.90;;;;;;5077326;28;20028;-80
2021/08/06 10:52:38;;;;;;;5.28;4.05;;;19.50;99.90;;;;;;5115893;28;20126;-80
2021/08/06 10:55:19;;;;;;;7.65;3.88;;;19.50;99.90;;;;;;5085306;28;20115;-80
2021/08/06 10:57:45;;;;;;;5.32;4.35;;;19.50;99.90;;;;;;5097849;28;20445;-80
2021/08/06 11:00:33;;;;;;;7.57;5.28;;;19.60;99.90;;;;;;5097931;28;20063;-80
2021/08/06 11:02:59;;;;;;;6.32;4.38;;;19.60;99.90;;;;;;5115006;28;20403;-80
2021/08/06 11:05:30;;;;;;;8.80;5.00;;;19.70;99.90;;;;;;5077480;28;20028;-80
2021/08/06 11:07:59;;;;;;;4.78;4.32;;;19.50;99.90;;;;;;5072426;28;20055;-80
2021/08/06 11:10:42;;;;;;;6.47;4.68;;;19.80;99.90;;;;;;5110749;28;20036;-80
2021/08/06 11:13:36;;;;;;;5.70;4.10;;;19.70;99.90;;;;;;5097875;28;20403;-80
2021/08/06 11:16:14;;;;;;;4.30;3.88;;;19.70;99.90;;;;;;5101614;28;20035;-80
2021/08/06 11:18:45;;;;;;;7.63;4.10;;;19.70;99.90;;;;;;5090828;28;20422;-80
2021/08/06 11:21:18;;;;;;;6.10;4.05;;;19.70;99.90;;;;;;5095708;28;20032;-80
2021/08/06 11:23:57;;;;;;;6.40;4.55;;;19.60;99.90;;;;;;5092512;28;20035;-80
2021/08/06 11:26:25;;;;;;;6.30;4.18;;;19.60;99.90;;;;;;5115099;28;20445;-80
2021/08/06 11:28:53;;;;;;;5.15;4.13;;;19.50;99.90;;;;;;5097176;28;20043;-80
2021/08/06 11:31:20;;;;;;;7.80;4.78;;;19.40;99.90;;;;;;5094164;28;20031;-80
2021/08/06 11:34:05;;;;;;;7.97;4.72;;;19.40;99.90;;;;;;5089099;28;20035;-80
2021/08/06 11:36:31;;;;;;;7.10;4.47;;;19.30;99.90;;;;;;5110607;28;20035;-80
2021/08/06 11:39:12;;;;;;;8.40;4.93;;;19.20;99.90;;;;;;5115128;28;20046;-80
2021/08/06 11:41:51;;;;;;;6.00;4.82;;;19.20;99.90;;;;;;5102810;28;20081;-80
2021/08/06 11:44:17;;;;;;;5.35;4.72;;;19.00;99.90;;;;;;5095380;28;20046;-81
2021/08/06 11:46:52;;;;;;;5.80;4.72;;;19.10;99.90;;;;;;5115113;28;20158;-81
2021/08/06 11:49:18;;;;;;;5.78;4.90;;;19.20;99.90;;;;;;5111929;28;20032;-80
2021/08/06 11:51:46;;;;;;;6.13;4.47;;;19.40;99.90;;;;;;5075818;28;20040;-80
2021/08/06 11:54:12;;;;;;;6.45;4.10;;;19.60;99.90;;;;;;5115037;28;20051;-80
2021/08/06 11:56:38;;;;;;;5.95;3.55;;;19.70;99.90;;;;;;5095583;28;20035;-81
2021/08/06 11:59:13;;;;;;;10.98;4.13;;;19.70;99.90;;;;;;5114996;28;20438;-80
2021/08/06 12:01:39;;;;;;;7.30;5.28;;;19.70;99.90;;;;;;5097758;28;20039;-80
2021/08/06 12:04:05;;;;;;;6.82;4.70;;;19.70;99.90;;;;;;5093999;28;20046;-80
2021/08/06 12:06:32;;;;;;;9.13;5.43;;;19.70;99.90;;;;;;5089700;28;20472;-80
2021/08/06 12:09:06;;;;;;;7.93;6.10;;;19.80;99.90;;;;;;5100145;28;20055;-80
2021/08/06 12:11:44;;;;;;;10.27;6.32;;;19.60;99.90;;;;;;5096413;28;20497;-80
2021/08/06 12:14:11;;;;;;;9.10;6.90;;;19.70;99.90;;;;;;5079413;28;20040;-80
2021/08/06 12:16:39;;;;;;;9.90;6.32;;;19.70;99.90;;;;;;5090519;28;20562;-81
2021/08/06 12:19:07;;;;;;;10.98;6.50;;;19.80;99.90;;;;;;5100509;28;20027;-80
2021/08/06 12:21:37;;;;;;;9.13;5.22;;;19.90;99.90;;;;;;5096748;28;20038;-80
2021/08/06 12:24:20;;;;;;;7.93;5.82;;;20.00;99.90;;;;;;5099657;28;20043;-80
2021/08/06 12:26:54;;;;;;;6.70;4.63;;;20.10;99.90;;;;;;5086855;28;20047;-80
2021/08/06 12:29:23;;;;;;;10.88;4.45;;;20.20;99.90;;;;;;5079142;28;20036;-80
2021/08/06 12:32:04;;;;;;;6.13;3.80;;;20.30;99.90;;;;;;5093245;28;20048;-80
2021/08/06 12:34:38;;;;;;;6.47;3.65;;;20.20;99.90;;;;;;5090297;28;20117;-80
2021/08/06 12:37:11;;;;;;;7.20;3.55;;;20.10;99.90;;;;;;5078138;28;20036;-80
2021/08/06 12:39:57;;;;;;;7.45;4.03;;;20.10;99.90;;;;;;5072359;28;20055;-80
2021/08/06 12:42:35;;;;;;;6.10;3.83;;;20.00;99.90;;;;;;5089077;28;20047;-80
2021/08/06 12:45:07;;;;;;;7.82;3.90;;;20.00;99.90;;;;;;5101781;28;20039;-80
2021/08/06 12:47:43;;;;;;;7.68;3.42;;;20.00;99.90;;;;;;5075099;28;20048;-80
2021/08/06 12:50:15;;;;;;;6.20;3.75;;;20.00;99.90;;;;;;5111079;28;20035;-81
2021/08/06 12:52:44;;;;;;;8.70;3.78;;;20.10;99.90;;;;;;5093874;28;20035;-80
2021/08/06 12:55:15;;;;;;;8.40;3.92;;;20.20;99.90;;;;;;5078523;28;20119;-80
2021/08/06 12:57:51;;;;;;;9.73;4.05;;;20.30;99.90;;;;;;5093569;28;20089;-80
2021/08/06 13:00:31;;;;;;;7.90;3.58;;;20.40;99.90;;;;;;5092492;28;20088;-80
2021/08/06 13:03:13;;;;;;;11.35;4.28;;;20.50;99.90;;;;;;5095523;28;20075;-80
2021/08/06 13:05:58;;;;;;;8.70;3.92;;;20.50;99.90;;;;;;5112418;28;20035;-80
2021/08/06 13:08:31;;;;;;;5.63;3.65;;;20.50;99.90;;;;;;5095364;28;20103;-80
2021/08/06 13:11:03;;;;;;;8.82;3.42;;;20.60;99.90;;;;;;5106757;28;20434;-80